Airfield :
LOGIN :

Register | Disclaimer

   EN    FR    IT 

 










Legend :    VFR   Marginal VFR   IFR   Intensive IFR   Very Intensive IFR
Visi :
Ceiling :
>= 8 km
>= 3000ft
5 to 8 km
1000 to 3000 ft
1500m to 5 km
500 to 1000 ft
800 to 1500m
200 to 500 ft
< 800m
< 200 ft
Symbols :   Thunderstorms  Fog  Heavy snow  Heavy precipitations  Wind > 20 kt
SIGMETs :     Misc.  Thunderstorms  Icing  Turbulence  Mountain Waves  Volcanic Ashes







- Airport Elevation : 856 ft
- IATA code : VGO


LEVX - Vigo Peinador

CURRENT METAR :
  • 252300Z 01005KT CAVOK 10/M01 Q1010 NOSIG

EXPIRED METARs :
  • 252230Z 02004KT CAVOK 10/M01 Q1011 NOSIG
  • 252200Z 02005KT CAVOK 10/M01 Q1011 NOSIG
  • 252130Z 01005KT 330V050 CAVOK 10/M00 Q1011 NOSIG
  • 252100Z 36005KT CAVOK 09/01 Q1011 NOSIG
  • 252030Z 35004KT 280V020 CAVOK 10/01 Q1011 NOSIG

TAF TAF LEVX
Valid from the 25 at 18:00 until the 26 at 18:00 UTC


251700Z 2518/2618 VRB06KT CAVOK TX18/2614Z TN02/2607Z
No reported NOTAMs for that airfield.



MET'MAP, your aeronautical weather chart ! - Copyright ORBIFLY December 2007 - Disclaimer

ORBIFLY MET'MAP TEAM :

Programming & Development : Alexandra Zaïnal
Concept & Development : Baudouin d'Aumeries
Co-Development & Prog : Marc-Olivier Méhu
Technical & hardware support : Manuel Goepfert

Contact : metmap@orbifly.com




SOURCES & CREDITS :

   NOAA